Darstellungsparameter: Aktuell verwendete Einstellungen:
Skalierung der Graphiken ... ?
xyx+y,   Skalierungsfaktor:      Skalierung: Modus: x, Faktor: 1
Darstellungszeitraum ... ?
Vom - - bis: - -   Zeitraum: 16.02.2017 - 15.08.2017
Min/Max/Avg-Anzeige ... ?
Zeige MMA aktuell
Zeige MMA Monat
Zeige MMA alles
Zeige --A aktuell
Zeige --A Monat
Zeige --A alles
Keine MMA-Anzeige
MMA:
Minimum Maximum Average (ber die Originaldaten)
MMA-Basis: 16.02.2017 - 15.08.2017
Quicknavigation für Darstellung... ?
Tage:      1T, 2T, 3T, 5T -1T -2T -3T -5T +1T +2T +3T +5T
Wochen: 1W, 2W, 3W -1W -2W -3W +1W +2W +3W
Monate: 1M, 3M, 6M -1M -3M -6M +1M +3M +6M
Jahre:    1J, 3J, 5J, 10J -1J -3J -5J -10J +1J +3J +5J +10J
Nutze für die Darstellung ... ?
Originaldaten oder ...
Mittelwerte Minima Maxima auf...
Stundenbasis Tagesbasis Wochenbasis
Monatsbasis Jahresbasis      Datenbasis: Mittelwerte auf Tagesbasis
Darstellen als:
Statistik (Auto) Statistik J:M      Darstellung:
Zur Graphik,    zurück zur Übersicht aller Sensoren.
 
Tabellarische Datenbersicht: ?
 
Sensor: Nr:Datum:Temp:Feuchte:Taupunkt:
Aussen-T/F 1 16-02-2017 00:00:00 4.06597 C 95.0382 % 3.34 C
2 17-02-2017 00:00:00 6.02222 C 95.7882 % 5.4 C
3 18-02-2017 00:00:00 5.94097 C 89.9375 % 4.42 C
4 19-02-2017 00:00:00 3.47083 C 91.4722 % 2.22 C
5 20-02-2017 00:00:00 8.45104 C 91.1111 % 7.09 C
6 21-02-2017 00:00:00 10.41458 C 92.1806 % 9.2 C
7 22-02-2017 00:00:00 11.10243 C 86.9167 % 9.01 C
8 23-02-2017 00:00:00 9.37708 C 82.3160 % 6.52 C
9 24-02-2017 00:00:00 5.21007 C 80.1215 % 2.07 C
10 25-02-2017 00:00:00 3.83993 C 84.8889 % 1.54 C
11 26-02-2017 00:00:00 8.62951 C 75.2188 % 4.5 C
12 27-02-2017 00:00:00 10.96042 C 73.1771 % 6.35 C
13 28-02-2017 00:00:00 5.79618 C 82.1285 % 2.99 C
14 01-03-2017 00:00:00 6.67257 C 86.8229 % 4.64 C
15 02-03-2017 00:00:00 8.27986 C 68.5764 % 2.85 C
16 03-03-2017 00:00:00 6.21771 C 76.6840 % 2.44 C
17 04-03-2017 00:00:00 10.95451 C 72.5382 % 6.22 C
18 05-03-2017 00:00:00 7.21354 C 86.9063 % 5.18 C
19 06-03-2017 00:00:00 6.48333 C 88.9306 % 4.79 C
20 07-03-2017 00:00:00 6.06806 C 92.0243 % 4.87 C
21 08-03-2017 00:00:00 5.01528 C 95.6597 % 4.38 C
22 09-03-2017 00:00:00 11.11146 C 85.3472 % 8.75 C
23 10-03-2017 00:00:00 7.4684 C 74.9896 % 3.33 C
24 11-03-2017 00:00:00 6.7316 C 76.7847 % 2.95 C
25 12-03-2017 00:00:00 6.62813 C 73.0590 % 2.15 C
Sensor: Nr:Datum:Temp:Feuchte:Taupunkt:
Aussen-T/F 26 13-03-2017 00:00:00 6.71007 C 76.5278 % 2.88 C
27 14-03-2017 00:00:00 9.45625 C 79.7708 % 6.14 C
28 15-03-2017 00:00:00 10.41493 C 79.8819 % 7.1 C
29 16-03-2017 00:00:00 8.32569 C 79.1250 % 4.93 C
30 17-03-2017 00:00:00 8.68507 C 77.3438 % 4.95 C
31 18-03-2017 00:00:00 9.53889 C 87.9514 % 7.64 C
32 19-03-2017 00:00:00 12.1559 C 84.9444 % 9.7 C
33 20-03-2017 00:00:00 11.60278 C 74.2986 % 7.19 C
34 21-03-2017 00:00:00 9.375 C 83.3090 % 6.69 C
35 22-03-2017 00:00:00 5.39132 C 87.9861 % 3.57 C
36 23-03-2017 00:00:00 8.8434 C 81.9097 % 5.93 C
37 24-03-2017 00:00:00 9.49444 C 76.3194 % 5.54 C
38 25-03-2017 00:00:00 9.21424 C 65.5590 % 3.11 C
39 26-03-2017 00:00:00 9.36594 C 63.8080 % 2.87 C
40 27-03-2017 00:00:00 8.83194 C 64.8194 % 2.59 C
41 28-03-2017 00:00:00 10.73819 C 69.2431 % 5.34 C
42 29-03-2017 00:00:00 12.89063 C 73.7014 % 8.31 C
43 30-03-2017 00:00:00 14.33507 C 72.3819 % 9.44 C
44 31-03-2017 00:00:00 13.69896 C 69.0938 % 8.14 C
45 01-04-2017 00:00:00 13.59792 C 71.9792 % 8.65 C
46 02-04-2017 00:00:00 11.71736 C 74.2222 % 7.29 C
47 03-04-2017 00:00:00 10.47257 C 76.1042 % 6.45 C
48 04-04-2017 00:00:00 9.3059 C 73.6285 % 4.85 C
49 05-04-2017 00:00:00 8.78889 C 75.9444 % 4.79 C
50 06-04-2017 00:00:00 8.65278 C 73.7292 % 4.23 C
Sensor: Nr:Datum:Temp:Feuchte:Taupunkt:
Aussen-T/F 51 07-04-2017 00:00:00 11.31566 C 70.4578 % 6.14 C
52 08-04-2017 00:00:00 14.59887 C 63.6780 % 7.8 C
53 09-04-2017 00:00:00 12.46215 C 72.6910 % 7.7 C
54 10-04-2017 00:00:00 10.93993 C 75.5174 % 6.79 C
55 11-04-2017 00:00:00 9.67188 C 68.7778 % 4.22 C
56 12-04-2017 00:00:00 11.34167 C 67.3993 % 5.53 C
57 13-04-2017 00:00:00 11.57153 C 68.3403 % 5.95 C
58 14-04-2017 00:00:00 9.77708 C 68.5660 % 4.28 C
59 15-04-2017 00:00:00 9.0875 C 81.6493 % 6.12 C
60 16-04-2017 00:00:00 7.52083 C 79.0590 % 4.13 C
61 17-04-2017 00:00:00 6.82257 C 84.8090 % 4.45 C
62 18-04-2017 00:00:00 5.52187 C 80.9167 % 2.51 C
63 19-04-2017 00:00:00 4.23646 C 70.6042 % -0.62 C
64 20-04-2017 00:00:00 4.68715 C 68.7882 % -0.54 C
65 21-04-2017 00:00:00 7.98299 C 70.7431 % 3 C
66 22-04-2017 00:00:00 9.60278 C 72.4063 % 4.89 C
67 23-04-2017 00:00:00 7.34722 C 68.6632 % 1.98 C
68 24-04-2017 00:00:00 8.25764 C 68.6424 % 2.84 C
69 25-04-2017 00:00:00 8.07118 C 68.6493 % 2.67 C
70 26-04-2017 00:00:00 7.03611 C 68.0208 % 1.55 C
71 27-04-2017 00:00:00 7.07917 C 67.6528 % 1.51 C
72 28-04-2017 00:00:00 6.15972 C 79.5104 % 2.89 C
73 29-04-2017 00:00:00 8.79132 C 71.5069 % 3.93 C
74 30-04-2017 00:00:00 11.04896 C 60.7951 % 3.78 C
75 01-05-2017 00:00:00 10.13576 C 85.0347 % 7.74 C
Sensor: Nr:Datum:Temp:Feuchte:Taupunkt:
Aussen-T/F 76 02-05-2017 00:00:00 9.00868 C 95.4549 % 8.32 C
77 03-05-2017 00:00:00 10.15694 C 90.6042 % 8.69 C
78 04-05-2017 00:00:00 11.64722 C 89.7361 % 10.02 C
79 05-05-2017 00:00:00 11.58021 C 81.0417 % 8.44 C
80 06-05-2017 00:00:00 12.91042 C 78.0139 % 9.17 C
81 07-05-2017 00:00:00 13.1434 C 93.6319 % 12.14 C
82 08-05-2017 00:00:00 9.64306 C 86.9063 % 7.57 C
83 09-05-2017 00:00:00 9.69931 C 70.4861 % 4.6 C
84 10-05-2017 00:00:00 10.29583 C 70.5590 % 5.19 C
85 11-05-2017 00:00:00 14.23542 C 73.0590 % 9.48 C
86 12-05-2017 00:00:00 15.89479 C 85.6250 % 13.49 C
87 13-05-2017 00:00:00 17.24514 C 75.3472 % 12.85 C
88 14-05-2017 00:00:00 16.17049 C 80.8993 % 12.89 C
89 15-05-2017 00:00:00 15.43403 C 72.0104 % 10.42 C
90 16-05-2017 00:00:00 18.86458 C 61.2049 % 11.24 C
91 17-05-2017 00:00:00 20.20243 C 65.0521 % 13.43 C
92 18-05-2017 00:00:00 17.96042 C 84.5729 % 15.32 C
93 19-05-2017 00:00:00 13.45694 C 96.0694 % 12.84 C
94 20-05-2017 00:00:00 12.04375 C 83.9931 % 9.43 C
95 21-05-2017 00:00:00 13.43889 C 75.2118 % 9.14 C
96 22-05-2017 00:00:00 16.05417 C 73.8090 % 11.39 C
97 23-05-2017 00:00:00 18.46736 C 69.4410 % 12.78 C
98 24-05-2017 00:00:00 16.81771 C 73.7639 % 12.11 C
99 25-05-2017 00:00:00 18.59167 C 70.2604 % 13.07 C
100 26-05-2017 00:00:00 18.71042 C 70.8472 % 13.31 C
Sensor: Nr:Datum:Temp:Feuchte:Taupunkt:
Aussen-T/F 101 27-05-2017 00:00:00 21.17049 C 66.6285 % 14.72 C
102 28-05-2017 00:00:00 21.21493 C 78.3993 % 17.31 C
103 29-05-2017 00:00:00 23.54271 C 75.5660 % 18.97 C
104 30-05-2017 00:00:00 21.97847 C 74.9549 % 17.33 C
105 31-05-2017 00:00:00 18.61667 C 68.5278 % 12.72 C
106 01-06-2017 00:00:00 18.99792 C 71.5590 % 13.74 C
107 02-06-2017 00:00:00 19.04583 C 83.6771 % 16.22 C
108 03-06-2017 00:00:00 18.89236 C 93.4132 % 17.81 C
109 04-06-2017 00:00:00 16.44306 C 84.5556 % 13.83 C
110 05-06-2017 00:00:00 16.50278 C 76.9792 % 12.46 C
111 06-06-2017 00:00:00 15.18958 C 77.8750 % 11.36 C
112 07-06-2017 00:00:00 13.87778 C 75.5347 % 9.63 C
113 08-06-2017 00:00:00 18.08924 C 68.5382 % 12.21 C
114 09-06-2017 00:00:00 16.93299 C 81.6319 % 13.77 C
115 10-06-2017 00:00:00 17.78368 C 70.4792 % 12.35 C
116 11-06-2017 00:00:00 20.38229 C 71.8993 % 15.15 C
117 12-06-2017 00:00:00 20.21667 C 59.4410 % 12.07 C
118 13-06-2017 00:00:00 17.4059 C 67.4549 % 11.32 C
119 14-06-2017 00:00:00 18.66597 C 69.6042 % 13 C
120 15-06-2017 00:00:00 21.18299 C 70.3333 % 15.57 C
121 16-06-2017 00:00:00 18.97743 C 62.8646 % 11.75 C
122 17-06-2017 00:00:00 17.05035 C 76.4444 % 12.88 C
123 18-06-2017 00:00:00 21.54514 C 69.8229 % 15.8 C
124 19-06-2017 00:00:00 22.06667 C 64.3160 % 15.02 C
125 20-06-2017 00:00:00 23.55069 C 62.5590 % 15.99 C
Sensor: Nr:Datum:Temp:Feuchte:Taupunkt:
Aussen-T/F 126 21-06-2017 00:00:00 25.2191 C 62.1146 % 17.45 C
127 22-06-2017 00:00:00 23.325 C 77.8264 % 19.23 C
128 23-06-2017 00:00:00 22.47014 C 68.4063 % 16.36 C
129 24-06-2017 00:00:00 20.09028 C 64.8924 % 13.28 C
130 25-06-2017 00:00:00 20.12639 C 70.0938 % 14.51 C
131 26-06-2017 00:00:00 21.1184 C 67.1667 % 14.79 C
132 27-06-2017 00:00:00 18.80104 C 85.3229 % 16.29 C
133 28-06-2017 00:00:00 19.80208 C 90.8299 % 18.26 C
134 29-06-2017 00:00:00 17.97535 C 86.2396 % 15.64 C
135 30-06-2017 00:00:00 17.41624 C 77.3875 % 13.42 C
136 01-07-2017 00:00:00 16.45451 C 89.6250 % 14.74 C
137 02-07-2017 00:00:00 16.87188 C 88.2361 % 14.91 C
138 03-07-2017 00:00:00 17.94201 C 72.9201 % 13.02 C
139 04-07-2017 00:00:00 19.98993 C 68.9375 % 14.12 C
140 05-07-2017 00:00:00 21.5875 C 69.0903 % 15.68 C
141 06-07-2017 00:00:00 21.41701 C 76.5278 % 17.12 C
142 07-07-2017 00:00:00 23.46076 C 73.7674 % 18.51 C
143 08-07-2017 00:00:00 22.5559 C 70.5035 % 16.92 C
144 09-07-2017 00:00:00 22.69271 C 74.1007 % 17.84 C
145 10-07-2017 00:00:00 19.75243 C 93.9792 % 18.76 C
146 11-07-2017 00:00:00 19.33264 C 81.8993 % 16.16 C
147 12-07-2017 00:00:00 17.22951 C 89.4514 % 15.48 C
148 13-07-2017 00:00:00 15.53958 C 75.6667 % 11.26 C
149 14-07-2017 00:00:00 16.34653 C 77.4965 % 12.41 C
150 15-07-2017 00:00:00 16.46389 C 74.5417 % 11.93 C
Sensor: Nr:Datum:Temp:Feuchte:Taupunkt:
Aussen-T/F 151 16-07-2017 00:00:00 19.03924 C 81.1215 % 15.73 C
152 17-07-2017 00:00:00 20.61007 C 81.2743 % 17.29 C
153 18-07-2017 00:00:00 21.7625 C 75.4965 % 17.24 C
154 19-07-2017 00:00:00 23.46806 C 73.3090 % 18.42 C
155 20-07-2017 00:00:00 21.83889 C 79.5764 % 18.15 C
156 21-07-2017 00:00:00 20.14583 C 71.6979 % 14.88 C
157 22-07-2017 00:00:00 21.77813 C 82.2743 % 18.62 C
158 23-07-2017 00:00:00 18.27639 C 78.7153 % 14.52 C
159 24-07-2017 00:00:00 14.9816 C 91.3681 % 13.59 C
160 25-07-2017 00:00:00 14.46979 C 96.2014 % 13.87 C
161 26-07-2017 00:00:00 17.50729 C 86.0139 % 15.14 C
162 27-07-2017 00:00:00 18.9184 C 89.6250 % 17.18 C
163 28-07-2017 00:00:00 17.14236 C 83.5694 % 14.34 C
164 29-07-2017 00:00:00 20.44271 C 81.0174 % 17.07 C
165 30-07-2017 00:00:00 22.74236 C 73.6667 % 17.8 C
166 31-07-2017 00:00:00 20.73542 C 77.8750 % 16.74 C
167 01-08-2017 00:00:00 19.90799 C 94.6424 % 19.02 C
168 02-08-2017 00:00:00 21.09306 C 86.4688 % 18.75 C
169 03-08-2017 00:00:00 21.32153 C 83.4271 % 18.4 C
170 04-08-2017 00:00:00 20.4309 C 76.2500 % 16.11 C
171 05-08-2017 00:00:00 18.99826 C 79.7326 % 15.42 C
172 06-08-2017 00:00:00 17.06181 C 74.4028 % 12.48 C
173 07-08-2017 00:00:00 17.21319 C 74.5313 % 12.65 C
174 08-08-2017 00:00:00 17.34063 C 86.7500 % 15.11 C
175 09-08-2017 00:00:00 17.64167 C 77.9826 % 13.76 C
Sensor: Nr:Datum:Temp:Feuchte:Taupunkt:
Aussen-T/F 176 10-08-2017 00:00:00 15.45139 C 94.6771 % 14.6 C
177 11-08-2017 00:00:00 14.99271 C 95.3889 % 14.26 C
178 12-08-2017 00:00:00 15.39965 C 94.4688 % 14.52 C
179 13-08-2017 00:00:00 18.25694 C 84.2813 % 15.56 C
180 14-08-2017 00:00:00 18.07396 C 87.2535 % 15.92 C
181 15-08-2017 00:00:00 18.78299 C 93.5243 % 17.72 C

Maximal/Minimal-Werte vom 16.02.2017 - 15.08.2017

Sensor Min Max Avg
Temp
(Aussen-T/F)
-2 °C
20-04-2017  07:05:00
35.6 °C
29-05-2017  17:30:00
14.24 °C
Feuchte
(Aussen-T/F)
22 %
27-03-2017  17:45:00
98 %
17-02-2017  09:05:00
77.95 %
Taupunkt
(Aussen-T/F)
-0.62 C
19-04-2017  00:00:00
19.23 C
22-06-2017  00:00:00
10.27 C

Die Daten stammen von einer Davis Vantage Pro 2 Wetter-Station und werden unter Linux mit der Software wview2wettercgi und aufbereitet. Alle Angaben erfolgen ohne Gewähr für ihre Vollständigkeit oder Richtigkeit.
Kontakt: Rainer Krienke krienke@uni-koblenz.de . Meine Webseiten an der Uni Koblenz oder privat.
Version: $Revision: 0.78 $